| time (UTC) | temp F | wind direction | speed knots | gust knots | rain 1hr in | rain 24hr in | rain mn in | humidity % | barometer mb |
| 20260506035052 | 46 | 355 | 2.6 | 3.5 | 0.00 | 0.00 | 0.00 | 60 | 1012.3 |
| 20260506034052 | 46 | 29 | 2.6 | 3.5 | 0.00 | 0.00 | 0.00 | 60 | 1012.1 |
| 20260506033033 | 46 | 5 | 2.6 | 5.2 | 0.00 | 0.00 | 0.00 | 60 | 1012.0 |
| 20260506032033 | 47 | 2 | 2.6 | 3.5 | 0.00 | 0.00 | 0.00 | 59 | 1012.0 |
| 20260506031033 | 47 | 344 | 1.7 | 2.6 | 0.00 | 0.00 | 0.00 | 59 | 1012.0 |
| 20260506030034 | 47 | 17 | 1.7 | 2.6 | 0.00 | 0.00 | 0.00 | 59 | 1011.9 |
| 20260506025033 | 48 | 13 | 1.7 | 2.6 | 0.00 | 0.00 | 0.00 | 57 | 1011.8 |
| 20260506024034 | 48 | 29 | 1.7 | 2.6 | 0.00 | 0.00 | 0.00 | 56 | 1011.6 |
| 20260506023033 | 48 | 4 | 1.7 | 3.5 | 0.00 | 0.00 | 0.00 | 56 | 1011.7 |
| 20260506022054 | 49 | 11 | 2.6 | 4.3 | 0.00 | 0.00 | 0.00 | 54 | 1011.7 |
| 20260506021033 | 50 | 25 | 3.5 | 4.3 | 0.00 | 0.00 | 0.00 | 53 | 1011.5 |
| 20260506020033 | 50 | 2 | 3.5 | 7.8 | 0.00 | 0.00 | 0.00 | 52 | 1011.3 |
| 20260506015033 | 50 | 2 | 3.5 | 4.3 | 0.00 | 0.00 | 0.00 | 53 | 1011.0 |
| 20260506014033 | 51 | 3 | 4.3 | 7.8 | 0.00 | 0.00 | 0.00 | 52 | 1010.8 |
| 20260506013033 | 51 | 345 | 6.1 | 8.7 | 0.00 | 0.00 | 0.00 | 51 | 1010.7 |
| 20260506012033 | 51 | 338 | 4.3 | 6.1 | 0.00 | 0.00 | 0.00 | 52 | 1010.5 |
| 20260506011032 | 51 | 339 | 4.3 | 6.1 | 0.00 | 0.00 | 0.00 | 51 | 1010.2 |
| 20260506010033 | 51 | 331 | 4.3 | 5.2 | 0.00 | 0.00 | 0.00 | 51 | 1010.2 |
| 20260506005113 | 52 | 330 | 3.5 | 5.2 | 0.00 | 0.00 | 0.00 | 50 | 1010.1 |
| 20260506004032 | 52 | 339 | 4.3 | 5.2 | 0.00 | 0.00 | 0.00 | 48 | 1010.0 |
| 20260506003033 | 53 | 316 | 6.1 | 7.0 | 0.00 | 0.00 | 0.00 | 48 | 1010.0 |
| 20260506002052 | 53 | 333 | 6.1 | 8.7 | 0.00 | 0.00 | 0.00 | 50 | 1009.9 |
| 20260506001031 | 53 | 299 | 3.5 | 5.2 | 0.00 | 0.00 | 0.00 | 52 | 1009.8 |
| 20260506000050 | 54 | 264 | 2.6 | 2.6 | 0.00 | 0.00 | 0.00 | 50 | 1009.8 |
| 20260505235031 | 54 | 278 | 3.5 | 4.3 | 0.00 | 0.00 | 0.00 | 48 | 1009.8 |
| 20260505234051 | 54 | 309 | 4.3 | 6.1 | 0.00 | 0.00 | 0.00 | 47 | 1009.9 |
| 20260505233031 | 54 | 303 | 6.1 | 7.8 | 0.00 | 0.00 | 0.00 | 48 | 1009.8 |
| 20260505232030 | 54 | 297 | 4.3 | 6.1 | 0.00 | 0.00 | 0.00 | 48 | 1009.8 |
| 20260505231030 | 55 | 266 | 5.2 | 7.8 | 0.00 | 0.00 | 0.00 | 46 | 1010.0 |
| 20260505230030 | 55 | 280 | 7.0 | 8.7 | 0.00 | 0.00 | 0.00 | 46 | 1010.1 |
| 20260505225223 | 55 | 270 | 7.8 | 7.8 | 0.00 | 0.00 | 0.00 | 46 | 1010.2 |
| 20260505224145 | 55 | 270 | 8.7 | 9.6 | 0.00 | 0.00 | 0.00 | 46 | 1010.1 |
| 20260505223356 | 56 | 293 | 5.2 | 6.1 | 0.00 | 0.00 | 0.00 | 45 | 1010.0 |
| 20260505222049 | 56 | 9.6 | 9.6 | 0.00 | 0.00 | 0.00 | 45 | 1009.9 | |
| 20260505221108 | 57 | 9.6 | 9.6 | 0.00 | 0.00 | 0.00 | 44 | 1009.9 | |
| 20260505220625 | 57 | 302 | 9.6 | 11.3 | 0.00 | 0.00 | 0.00 | 44 | 1009.9 |
| 20260505215049 | 58 | 277 | 8.7 | 11.3 | 0.00 | 0.00 | 0.00 | 42 | 1009.8 |
| 20260505214049 | 59 | 305 | 8.7 | 11.3 | 0.00 | 0.00 | 0.00 | 42 | 1009.9 |
| 20260505213028 | 57 | 293 | 8.7 | 11.3 | 0.00 | 0.00 | 0.00 | 43 | 1009.9 |
| 20260505212028 | 58 | 282 | 9.6 | 15.6 | 0.00 | 0.00 | 0.00 | 42 | 1009.8 |
| 20260505211027 | 58 | 276 | 8.7 | 10.4 | 0.00 | 0.00 | 0.00 | 43 | 1009.9 |
| 20260505210027 | 59 | 296 | 8.7 | 11.3 | 0.00 | 0.00 | 0.00 | 42 | 1010.0 |
| 20260505205028 | 58 | 284 | 7.0 | 8.7 | 0.00 | 0.00 | 0.00 | 43 | 1010.0 |
| 20260505204026 | 57 | 284 | 9.6 | 11.3 | 0.00 | 0.00 | 0.00 | 43 | 1010.1 |
| 20260505203027 | 58 | 292 | 9.6 | 11.3 | 0.00 | 0.00 | 0.00 | 42 | 1010.3 |
| 20260505202046 | 58 | 286 | 10.4 | 13.0 | 0.00 | 0.00 | 0.00 | 43 | 1010.2 |
| 20260505201106 | 58 | 282 | 11.3 | 15.6 | 0.00 | 0.00 | 0.00 | 42 | 1010.3 |
| 20260505200025 | 59 | 294 | 11.3 | 13.0 | 0.00 | 0.00 | 0.00 | 40 | 1010.4 |
| 20260505195025 | 57 | 288 | 12.2 | 14.8 | 0.00 | 0.00 | 0.00 | 41 | 1010.4 |
| 20260505194024 | 57 | 279 | 11.3 | 14.8 | 0.00 | 0.00 | 0.00 | 42 | 1010.5 |
| 20260505193024 | 58 | 304 | 11.3 | 13.0 | 0.00 | 0.00 | 0.00 | 40 | 1010.5 |
| 20260505192023 | 58 | 286 | 9.6 | 11.3 | 0.00 | 0.00 | 0.00 | 40 | 1010.6 |
| 20260505191023 | 57 | 270 | 9.6 | 13.0 | 0.00 | 0.00 | 0.00 | 39 | 1010.6 |
| 20260505185216 | 58 | 282 | 7.0 | 7.8 | 0.00 | 0.00 | 0.00 | 37 | 1010.5 |
| 20260505184022 | 58 | 270 | 9.6 | 13.0 | 0.00 | 0.00 | 0.00 | 39 | 1010.5 |
| 20260505183040 | 58 | 298 | 7.8 | 9.6 | 0.00 | 0.00 | 0.00 | 38 | 1010.5 |
| 20260505182021 | 56 | 278 | 9.6 | 11.3 | 0.00 | 0.00 | 0.00 | 39 | 1010.5 |
| 20260505181021 | 57 | 280 | 9.6 | 12.2 | 0.00 | 0.00 | 0.00 | 41 | 1010.4 |
| 20260505180039 | 56 | 317 | 8.7 | 9.6 | 0.00 | 0.00 | 0.00 | 42 | 1010.2 |
| 20260505175020 | 55 | 287 | 9.6 | 11.3 | 0.00 | 0.00 | 0.00 | 42 | 1010.2 |
| 20260505174040 | 55 | 293 | 8.7 | 10.4 | 0.00 | 0.00 | 0.00 | 44 | 1010.2 |
| 20260505173020 | 54 | 319 | 11.3 | 13.0 | 0.00 | 0.00 | 0.00 | 45 | 1010.3 |
| 20260505172019 | 55 | 280 | 8.7 | 10.4 | 0.00 | 0.00 | 0.00 | 42 | 1010.2 |
| 20260505171019 | 56 | 289 | 9.6 | 13.9 | 0.00 | 0.00 | 0.00 | 42 | 1010.2 |
| 20260505170038 | 56 | 298 | 7.8 | 13.0 | 0.00 | 0.00 | 0.00 | 43 | 1010.2 |
| 20260505165037 | 56 | 294 | 8.7 | 11.3 | 0.00 | 0.00 | 0.00 | 42 | 1010.0 |
| 20260505164037 | 55 | 286 | 11.3 | 14.8 | 0.00 | 0.00 | 0.00 | 43 | 1009.9 |
| 20260505163036 | 56 | 287 | 9.6 | 13.9 | 0.00 | 0.00 | 0.00 | 43 | 1009.7 |
| 20260505162056 | 54 | 282 | 11.3 | 14.8 | 0.00 | 0.00 | 0.00 | 44 | 1010.0 |
| 20260505161131 | 55 | 291 | 9.6 | 13.0 | 0.00 | 0.00 | 0.00 | 45 | 1010.1 |
| 20260505153034 | 53 | 285 | 10.4 | 13.9 | 0.00 | 0.00 | 0.00 | 48 | 1010.0 |
| 20260505152130 | 53 | 280 | 8.7 | 10.4 | 0.00 | 0.00 | 0.00 | 46 | 1010.0 |
| 20260505151033 | 54 | 283 | 7.0 | 10.4 | 0.00 | 0.00 | 0.00 | 45 | 1010.1 |
| 20260505123800 | 48 | 321 | 2.6 | 3.5 | 0.00 | 0.00 | 0.00 | 60 | 1010.0 |
| 20260505122607 | 0 | 303 | 3.5 | 3.5 | 0.00 | 0.00 | 0.00 | ||
| 20260505115607 | 47 | 290 | 5.2 | 5.2 | 0.00 | 0.00 | 0.00 | 61 | 1009.8 |
| 20260505114125 | 46 | 295 | 5.2 | 6.1 | 0.00 | 0.00 | 0.00 | 60 | 1009.8 |
| 20260505113106 | 46 | 299 | 4.3 | 5.2 | 0.00 | 0.00 | 0.00 | 59 | 1009.0 |
| 20260505112048 | 46 | 358 | 4.3 | 6.1 | 0.00 | 0.00 | 0.00 | 59 | 1008.1 |
| 20260505111143 | 46 | 317 | 5.2 | 6.1 | 0.00 | 0.00 | 0.00 | 61 | 1008.3 |
| 20260505110529 | 46 | 6.1 | 6.1 | 0.00 | 0.00 | 0.00 | 62 | 1008.7 | |
| 20260505102028 | 46 | 352 | 3.5 | 4.3 | 0.00 | 0.00 | 0.00 | 68 | 1008.3 |
| 20260505101028 | 46 | 11 | 2.6 | 4.3 | 0.00 | 0.00 | 0.00 | 67 | 1008.0 |
| 20260505100028 | 46 | 12 | 3.5 | 5.2 | 0.00 | 0.00 | 0.00 | 66 | 1008.1 |
| 20260505095028 | 47 | 1 | 3.5 | 5.2 | 0.00 | 0.00 | 0.00 | 65 | 1007.8 |
| 20260505094028 | 47 | 35 | 2.6 | 4.3 | 0.00 | 0.00 | 0.00 | 65 | 1007.4 |
| 20260505093048 | 47 | 20 | 3.5 | 5.2 | 0.00 | 0.00 | 0.00 | 65 | 1007.4 |
| 20260505092108 | 47 | 1 | 2.6 | 4.3 | 0.00 | 0.00 | 0.00 | 64 | 1008.0 |
| 20260505091027 | 47 | 8 | 4.3 | 7.0 | 0.00 | 0.00 | 0.00 | 63 | 1007.9 |
| 20260505090028 | 47 | 344 | 6.1 | 9.6 | 0.00 | 0.00 | 0.00 | 63 | 1007.9 |
| 20260505085027 | 47 | 6 | 4.3 | 6.1 | 0.00 | 0.00 | 0.00 | 63 | 1007.3 |
| 20260505084028 | 48 | 342 | 5.2 | 10.4 | 0.00 | 0.00 | 0.00 | 63 | 1007.2 |
| 20260505083027 | 48 | 9 | 5.2 | 7.8 | 0.00 | 0.00 | 0.00 | 63 | 1006.9 |
| 20260505082027 | 49 | 37 | 3.5 | 5.2 | 0.00 | 0.00 | 0.00 | 65 | 1006.4 |
| 20260505081027 | 49 | 338 | 4.3 | 7.0 | 0.00 | 0.00 | 0.00 | 64 | 1006.3 |
| 20260505080027 | 50 | 347 | 5.2 | 6.1 | 0.00 | 0.00 | 0.00 | 63 | 1005.9 |
| 20260505075047 | 50 | 306 | 6.1 | 7.8 | 0.00 | 0.00 | 0.00 | 61 | 1005.9 |
| 20260505074046 | 50 | 353 | 5.2 | 9.6 | 0.00 | 0.00 | 0.00 | 61 | 1005.3 |
| 20260505073045 | 51 | 359 | 6.1 | 8.7 | 0.00 | 0.00 | 0.00 | 60 | 1005.0 |
| 20260505072026 | 51 | 356 | 6.1 | 12.2 | 0.00 | 0.00 | 0.00 | 60 | 1005.3 |
| 20260505071026 | 52 | 3 | 7.0 | 11.3 | 0.00 | 0.00 | 0.00 | 59 | 1005.4 |
| 20260505070026 | 52 | 15 | 7.0 | 10.4 | 0.00 | 0.00 | 0.00 | 60 | 1005.1 |
| 20260505065026 | 53 | 356 | 6.1 | 8.7 | 0.00 | 0.00 | 0.00 | 60 | 1005.2 |
| 20260505064026 | 53 | 347 | 6.1 | 9.6 | 0.00 | 0.00 | 0.00 | 59 | 1004.6 |
| 20260505063046 | 54 | 330 | 3.5 | 5.2 | 0.00 | 0.00 | 0.00 | 58 | 1004.5 |
| 20260505062025 | 55 | 343 | 5.2 | 7.0 | 0.00 | 0.00 | 0.00 | 57 | 1004.3 |
| 20260505061025 | 55 | 329 | 6.1 | 9.6 | 0.00 | 0.00 | 0.00 | 56 | 1004.3 |
| 20260505060025 | 55 | 337 | 6.1 | 9.6 | 0.00 | 0.00 | 0.00 | 55 | 1003.9 |
| 20260505055045 | 56 | 326 | 7.8 | 9.6 | 0.00 | 0.00 | 0.00 | 54 | 1004.1 |
| 20260505054024 | 57 | 325 | 7.8 | 11.3 | 0.00 | 0.00 | 0.00 | 53 | 1004.0 |
| 20260505053024 | 57 | 316 | 7.8 | 12.2 | 0.00 | 0.00 | 0.00 | 51 | 1004.0 |
| 20260505052025 | 58 | 310 | 6.1 | 8.7 | 0.00 | 0.00 | 0.00 | 50 | 1003.7 |
| 20260505051024 | 58 | 324 | 7.0 | 8.7 | 0.00 | 0.00 | 0.00 | 50 | 1003.6 |
| 20260505041523 | 60 | 297 | 10.4 | 17.4 | 0.00 | 0.00 | 0.00 | 45 | 1003.0 |
| 20260505040523 | 60 | 295 | 7.8 | 10.4 | 0.00 | 0.00 | 0.00 | 45 | 1002.9 |
| 20260505040005 | 61 | 302 | 12.2 | 15.6 | 0.00 | 0.00 | 0.00 | 45 | 1002.6 |